^^
Saratoga-Weather Station Historical Data
Daily Summary for January 10, 2020 Units:  English    Metric   Both
Daily Weekly Monthly Yearly Custom
  High: Low: Average:
Temperature: 96.8 °F 68.9 °F 83.7 °F
Dew Point: 64 °F 58.6 °F 61.5 °F
Humidity: 76% 29% 50%
Wind Speed: 6.9mph 0mph 1.2mph
Wind Gust: 11mph - -
Wind- - SE
Pressure: 29.9 in 29.8 in -
Precipitation: 0 in    
Historical Graphs
 
 
Tabular Data for January 10, 2020
Time Temperature Dew Point Pressure Wind Wind Speed Wind Gust Humidity Rainfall Rate (Hourly) solar
00:03 78.4 °F 62.4 °F 29.9 in WNW 0.9 mph 3 mph 58% 0 in 0 W/m2
00:08 78.1 °F 62.6 °F 29.9 in West 0.9 mph 1 mph 59% 0 in 0 W/m2
00:13 77.7 °F 62.2 °F 29.9 in WSW 0.9 mph 2 mph 59% 0 in 0 W/m2
00:18 77.5 °F 62.6 °F 29.9 in Calm   1 mph 60% 0 in 0 W/m2
00:23 77.4 °F 62.4 °F 29.9 in Calm   3 mph 60% 0 in 0 W/m2
00:28 77.4 °F 61.9 °F 29.9 in Calm   2 mph 59% 0 in 0 W/m2
00:33 77.4 °F 62.4 °F 29.9 in Calm     60% 0 in 0 W/m2
00:38 77.4 °F 61.3 °F 29.9 in West 4 mph 4 mph 58% 0 in 0 W/m2
00:43 78.1 °F 61.5 °F 29.9 in West 4 mph 6 mph 57% 0 in 0 W/m2
00:48 78.4 °F 61.5 °F 29.9 in Calm   3 mph 56% 0 in 0 W/m2
00:53 78.6 °F 61.2 °F 29.9 in WNW 2.9 mph 3 mph 55% 0 in 0 W/m2
00:58 78.6 °F 61.2 °F 29.9 in West 2.9 mph 4 mph 55% 0 in 0 W/m2
01:03 78.6 °F 60.6 °F 29.9 in NW 2 mph 7 mph 54% 0 in 0 W/m2
01:08 78.8 °F 61.3 °F 29.9 in NNW 0.9 mph 2 mph 55% 0 in 0 W/m2
01:13 78.6 °F 61.2 °F 29.9 in WNW 4 mph 6 mph 55% 0 in 0 W/m2
01:18 78.6 °F 61.2 °F 29.9 in WSW 2 mph 3 mph 55% 0 in 0 W/m2
01:23 78.4 °F 61 °F 29.9 in East 2 mph 2 mph 55% 0 in 0 W/m2
01:28 78.4 °F 61.5 °F 29.9 in Calm   2 mph 56% 0 in 0 W/m2
01:33 78.3 °F 61.3 °F 29.9 in SE 0.9 mph 2 mph 56% 0 in 0 W/m2
01:38 78.3 °F 61.3 °F 29.9 in Calm   5 mph 56% 0 in 0 W/m2
01:43 78.1 °F 61.2 °F 29.9 in SW 2 mph 3 mph 56% 0 in 0 W/m2
01:48 77.9 °F 61.5 °F 29.9 in NNW 2 mph 5 mph 57% 0 in 0 W/m2
01:53 77.7 °F 61.3 °F 29.9 in NW 0.9 mph 1 mph 57% 0 in 0 W/m2
01:58 77.7 °F 61.3 °F 29.9 in Calm   3 mph 57% 0 in 0 W/m2
02:03 77.5 °F 61.2 °F 29.9 in WSW 2 mph 2 mph 57% 0 in 0 W/m2
02:08 77.5 °F 61.2 °F 29.9 in NNE 2.9 mph 5 mph 57% 0 in 0 W/m2
02:13 77.5 °F 61.2 °F 29.9 in SSW 0.9 mph 2 mph 57% 0 in 0 W/m2
02:18 77.5 °F 61.2 °F 29.9 in West 0.9 mph 4 mph 57% 0 in 0 W/m2
02:23 77.5 °F 61.5 °F 29.9 in SSW 2 mph 4 mph 58% 0 in 0 W/m2
02:28 77.4 °F 61.3 °F 29.9 in SW 4 mph 11 mph 58% 0 in 0 W/m2
02:34 77.2 °F 61.3 °F 29.9 in South 2 mph 5 mph 58% 0 in 0 W/m2
02:39 77 °F 61.2 °F 29.9 in SE 2.9 mph 11 mph 58% 0 in 0 W/m2
02:44 76.8 °F 61 °F 29.9 in WSW 0.9 mph 2 mph 58% 0 in 0 W/m2
02:49 76.6 °F 61.2 °F 29.9 in Calm   1 mph 59% 0 in 0 W/m2
02:54 76.5 °F 61 °F 29.9 in Calm   1 mph 59% 0 in 0 W/m2
02:59 76.3 °F 61.3 °F 29.9 in West 2 mph 2 mph 60% 0 in 0 W/m2
03:04 75.9 °F 61.5 °F 29.9 in Calm   2 mph 61% 0 in 0 W/m2
03:09 75.7 °F 60.8 °F 29.9 in ENE 2.9 mph 3 mph 60% 0 in 0 W/m2
03:14 75.7 °F 60.8 °F 29.9 in East 2 mph 3 mph 60% 0 in 0 W/m2
03:19 75.7 °F 60.8 °F 29.9 in Calm   2 mph 60% 0 in 0 W/m2
03:24 75.6 °F 61.2 °F 29.9 in Calm   1 mph 61% 0 in 0 W/m2
03:29 75.2 °F 61.3 °F 29.9 in SSE 2.9 mph 3 mph 62% 0 in 0 W/m2
03:35 74.8 °F 61.3 °F 29.9 in ESE 2 mph 2 mph 63% 0 in 0 W/m2
03:40 74.7 °F 61.2 °F 29.9 in Calm   2 mph 63% 0 in 0 W/m2
03:45 74.1 °F 61.2 °F 29.9 in ESE 0.9 mph 2 mph 64% 0 in 0 W/m2
03:50 73.9 °F 61 °F 29.9 in ESE 0.9 mph 2 mph 64% 0 in 0 W/m2
03:55 73.6 °F 61.2 °F 29.9 in ESE 0.9 mph 2 mph 65% 0 in 0 W/m2
04:00 73.2 °F 61.2 °F 29.9 in ESE 0.9 mph 2 mph 66% 0 in 0 W/m2
04:05 73 °F 61 °F 29.9 in Calm   1 mph 66% 0 in 0 W/m2
04:10 72.9 °F 61.3 °F 29.9 in Calm   2 mph 67% 0 in 0 W/m2
04:15 72.7 °F 61.2 °F 29.9 in Calm     67% 0 in 0 W/m2
04:20 72.3 °F 61.2 °F 29.9 in Calm   2 mph 68% 0 in 0 W/m2
04:25 72.1 °F 61 °F 29.9 in Calm     68% 0 in 0 W/m2
04:30 72 °F 61.2 °F 29.9 in ESE 0.9 mph 1 mph 69% 0 in 0 W/m2
04:35 72 °F 60.8 °F 29.9 in ESE 0.9 mph 1 mph 68% 0 in 0 W/m2
04:40 72 °F 60.8 °F 29.9 in ESE 0.9 mph 2 mph 68% 0 in 0 W/m2
04:45 72 °F 61.2 °F 29.9 in Calm     69% 0 in 0 W/m2
04:51 72 °F 61.2 °F 29.9 in Calm   2 mph 69% 0 in 0 W/m2
04:56 72 °F 61.2 °F 29.9 in Calm     69% 0 in 0 W/m2
05:01 71.8 °F 61 °F 29.9 in Calm   3 mph 69% 0 in 0 W/m2
05:06 71.6 °F 61.3 °F 29.9 in Calm     70% 0 in 0 W/m2
05:11 71.4 °F 61.2 °F 29.9 in South 0.9 mph 3 mph 70% 0 in 0 W/m2
05:16 71.4 °F 61.2 °F 29.9 in Calm   1 mph 70% 0 in 0 W/m2
05:21 71.2 °F 61 °F 29.9 in Calm   2 mph 70% 0 in 0 W/m2
05:26 71.1 °F 60.8 °F 29.9 in Calm   1 mph 70% 0 in 0 W/m2
05:31 70.9 °F 61 °F 29.9 in South 0.9 mph 1 mph 71% 0 in 0 W/m2
05:36 70.7 °F 61.2 °F 29.9 in South 0.9 mph 2 mph 72% 0 in 0 W/m2
05:41 70.5 °F 61 °F 29.9 in South 0.9 mph 1 mph 72% 0 in 0 W/m2
05:46 70.3 °F 60.8 °F 29.9 in Calm   1 mph 72% 0 in 0 W/m2
05:51 70.2 °F 60.6 °F 29.9 in South 0.9 mph 1 mph 72% 0 in 0 W/m2
05:56 70 °F 61 °F 29.9 in Calm   1 mph 73% 0 in 0 W/m2
06:01 69.8 °F 60.8 °F 29.9 in Calm     73% 0 in 0 W/m2
06:06 69.6 °F 61 °F 29.9 in Calm     74% 0 in 0 W/m2
06:11 69.4 °F 60.8 °F 29.9 in Calm     74% 0 in 0 W/m2
06:16 69.4 °F 60.8 °F 29.9 in Calm     74% 0 in 0 W/m2
06:21 69.3 °F 61 °F 29.9 in Calm     75% 0 in 0 W/m2
06:26 69.3 °F 61 °F 29.9 in Calm     75% 0 in 5 W/m2
06:31 69.3 °F 61 °F 29.9 in Calm     75% 0 in 7 W/m2
06:36 69.1 °F 60.8 °F 29.9 in Calm     75% 0 in 11 W/m2
06:41 69.1 °F 61.2 °F 29.9 in Calm     76% 0 in 14 W/m2
06:46 68.9 °F 61 °F 29.9 in South 0.9 mph 1 mph 76% 0 in 18 W/m2
06:51 68.9 °F 61 °F 29.9 in Calm     76% 0 in 21 W/m2
06:56 69.1 °F 61.2 °F 29.9 in Calm     76% 0 in 25 W/m2
07:01 69.1 °F 61.2 °F 29.9 in South 0.9 mph 1 mph 76% 0 in 26 W/m2
07:07 69.3 °F 61.3 °F 29.9 in Calm   1 mph 76% 0 in 30 W/m2
07:12 69.4 °F 61.5 °F 29.9 in Calm     76% 0 in 33 W/m2
07:17 69.4 °F 61.5 °F 29.9 in Calm   1 mph 76% 0 in 35 W/m2
07:22 69.6 °F 61.7 °F 29.9 in Calm     76% 0 in 39 W/m2
07:27 69.8 °F 61.9 °F 29.9 in Calm     76% 0 in 40 W/m2
07:32 70.2 °F 62.2 °F 29.9 in Calm   1 mph 76% 0 in 42 W/m2
07:37 70.5 °F 61.9 °F 29.9 in Calm   2 mph 74% 0 in 44 W/m2
07:42 71.2 °F 62.1 °F 29.9 in Calm   1 mph 73% 0 in 46 W/m2
07:47 71.4 °F 61.9 °F 29.9 in Calm     72% 0 in 49 W/m2
07:52 71.8 °F 61.5 °F 29.9 in Calm   2 mph 70% 0 in 53 W/m2
07:57 72.1 °F 61.9 °F 29.9 in Calm     70% 0 in 62 W/m2
08:02 72.3 °F 62.1 °F 29.9 in Calm   2 mph 70% 0 in 63 W/m2
08:07 72.7 °F 61.9 °F 29.9 in Calm     69% 0 in 74 W/m2
08:12 73 °F 62.2 °F 29.9 in Calm   2 mph 69% 0 in 65 W/m2
08:17 73.6 °F 61.9 °F 29.9 in Calm   2 mph 67% 0 in 65 W/m2
08:22 74.1 °F 62.4 °F 29.9 in Calm   2 mph 67% 0 in 67 W/m2
08:27 74.7 °F 62.6 °F 29.9 in Calm   2 mph 66% 0 in 67 W/m2
08:32 75 °F 62.4 °F 29.9 in North 0.9 mph 2 mph 65% 0 in 70 W/m2
08:37 75.7 °F 62.8 °F 29.9 in Calm   1 mph 64% 0 in 74 W/m2
08:42 76.3 °F 63.1 °F 29.9 in NW 0.9 mph 4 mph 64% 0 in 77 W/m2
08:47 76.3 °F 62.8 °F 29.9 in NE 2 mph 3 mph 63% 0 in 79 W/m2
08:52 76.5 °F 63 °F 29.9 in Calm   2 mph 63% 0 in 113 W/m2
08:57 76.8 °F 62.8 °F 29.9 in ENE 2 mph 3 mph 62% 0 in 220 W/m2
09:02 77.5 °F 63 °F 29.9 in East 0.9 mph 2 mph 61% 0 in 290 W/m2
09:07 78.1 °F 63.1 °F 29.9 in NE 2 mph 4 mph 60% 0 in 309 W/m2
09:12 78.3 °F 62.8 °F 29.9 in North 0.9 mph 1 mph 59% 0 in 322 W/m2
09:17 78.4 °F 63.3 °F 29.9 in Calm   4 mph 60% 0 in 334 W/m2
09:22 78.8 °F 63.3 °F 29.9 in NE 2.9 mph 3 mph 59% 0 in 348 W/m2
09:27 79.2 °F 63.1 °F 29.9 in East 2.9 mph 3 mph 58% 0 in 359 W/m2
09:32 79.2 °F 63.1 °F 29.9 in ENE 0.9 mph 2 mph 58% 0 in 374 W/m2
09:37 79.3 °F 63.3 °F 29.9 in Calm   2 mph 58% 0 in 388 W/m2
09:42 79.7 °F 62.6 °F 29.9 in ENE 2.9 mph 5 mph 56% 0 in 338 W/m2
09:48 80.1 °F 62.4 °F 29.9 in ESE 0.9 mph 6 mph 55% 0 in 102 W/m2
09:53 80.2 °F 62.6 °F 29.9 in NE 0.9 mph 4 mph 55% 0 in 401 W/m2
09:58 80.8 °F 63.1 °F 29.9 in East 0.9 mph 5 mph 55% 0 in 438 W/m2
10:03 81.1 °F 63 °F 29.9 in SSW 2 mph 3 mph 54% 0 in 455 W/m2
10:08 81.9 °F 63 °F 29.9 in NE 4 mph 4 mph 53% 0 in 473 W/m2
10:13 82 °F 62.6 °F 29.9 in East 0.9 mph 4 mph 52% 0 in 483 W/m2
10:18 82.4 °F 63 °F 29.9 in East 2 mph 4 mph 52% 0 in 490 W/m2
10:23 82.6 °F 63.1 °F 29.9 in SE 2.9 mph 3 mph 52% 0 in 506 W/m2
10:28 82.9 °F 64 °F 29.9 in NE 2.9 mph 6 mph 53% 0 in 515 W/m2
10:33 83.3 °F 63.3 °F 29.9 in Calm   1 mph 51% 0 in 515 W/m2
10:38 83.5 °F 63.5 °F 29.9 in ESE 2 mph 6 mph 51% 0 in 529 W/m2
10:43 83.7 °F 63.7 °F 29.9 in NNE 4.9 mph 6 mph 51% 0 in 529 W/m2
10:48 83.8 °F 63.9 °F 29.9 in NE 2 mph 2 mph 51% 0 in 548 W/m2
10:53 84.4 °F 63.7 °F 29.9 in WNW 2 mph 4 mph 50% 0 in 566 W/m2
10:58 84.6 °F 63.3 °F 29.9 in NNE 0.9 mph 1 mph 49% 0 in 587 W/m2
11:03 84.7 °F 63 °F 29.9 in NE 0.9 mph 3 mph 48% 0 in 599 W/m2
11:08 85.1 °F 63.1 °F 29.9 in NE 0.9 mph 4 mph 48% 0 in 608 W/m2
11:13 85.6 °F 63.1 °F 29.9 in Calm   3 mph 47% 0 in 619 W/m2
11:18 86.4 °F 63.1 °F 29.9 in ENE 0.9 mph 7 mph 46% 0 in 628 W/m2
11:23 86.7 °F 62.8 °F 29.9 in NNW 0.9 mph 9 mph 45% 0 in 642 W/m2
11:28 87.1 °F 62.6 °F 29.9 in NNE 6.9 mph 8 mph 44% 0 in 640 W/m2
11:33 87.3 °F 62.6 °F 29.9 in NNE 2 mph 9 mph 44% 0 in 649 W/m2
11:38 87.4 °F 62.8 °F 29.9 in NNE 2 mph 5 mph 44% 0 in 652 W/m2
11:43 87.6 °F 62.4 °F 29.9 in East 2.9 mph 4 mph 43% 0 in 666 W/m2
11:48 88.2 °F 62.8 °F 29.9 in NE 0.9 mph 6 mph 43% 0 in 668 W/m2
11:53 88.3 °F 62.4 °F 29.9 in NNW 2 mph 3 mph 42% 0 in 668 W/m2
11:58 88.9 °F 62.8 °F 29.9 in NE 4 mph 4 mph 42% 0 in 673 W/m2
12:04 89.1 °F 63 °F 29.9 in ENE 0.9 mph 4 mph 42% 0 in 693 W/m2
12:09 89.2 °F 62.4 °F 29.9 in NNE 2 mph 3 mph 41% 0 in 705 W/m2
12:14 89.8 °F 63 °F 29.9 in West 2 mph 3 mph 41% 0 in 731 W/m2
12:19 90 °F 63.1 °F 29.9 in ENE 2 mph 2 mph 41% 0 in 441 W/m2
12:24 90.3 °F 62.1 °F 29.9 in ENE 2 mph 6 mph 39% 0 in 387 W/m2
12:29 90.3 °F 62.1 °F 29.9 in ESE 2 mph 3 mph 39% 0 in 543 W/m2
12:34 90.3 °F 62.8 °F 29.9 in East 2 mph 6 mph 40% 0 in 671 W/m2
12:39 90.9 °F 63.1 °F 29.9 in SE 2.9 mph 5 mph 40% 0 in 759 W/m2
12:44 91.2 °F 62.8 °F 29.9 in NE 0.9 mph 6 mph 39% 0 in 729 W/m2
12:49 91.4 °F 62.2 °F 29.9 in NNE 0.9 mph 2 mph 38% 0 in 742 W/m2
12:54 91.8 °F 62.6 °F 29.9 in ENE 2 mph 3 mph 38% 0 in 640 W/m2
12:59 91.8 °F 63.3 °F 29.9 in NNW 2 mph 3 mph 39% 0 in 802 W/m2
13:04 92.1 °F 62.8 °F 29.9 in ESE 2 mph 7 mph 38% 0 in 796 W/m2
13:09 92.5 °F 62.4 °F 29.9 in ENE 2 mph 2 mph 37% 0 in 788 W/m2
13:14 92.8 °F 62.8 °F 29.9 in North 2.9 mph 4 mph 37% 0 in 782 W/m2
13:19 93 °F 63 °F 29.9 in Calm   1 mph 37% 0 in 777 W/m2
13:24 92.7 °F 61.9 °F 29.9 in WSW 2 mph 4 mph 36% 0 in 589 W/m2
13:29 92.5 °F 62.4 °F 29.9 in SE 2.9 mph 5 mph 37% 0 in 714 W/m2
13:34 92.5 °F 62.4 °F 29.9 in Calm   3 mph 37% 0 in 432 W/m2
13:39 92.5 °F 62.4 °F 29.9 in NE 2 mph 5 mph 37% 0 in 561 W/m2
13:45 92.8 °F 61.9 °F 29.9 in West 2.9 mph 5 mph 36% 0 in 846 W/m2
13:50 93.2 °F 61.5 °F 29.9 in East 2.9 mph 6 mph 35% 0 in 341 W/m2
13:55 93 °F 63 °F 29.9 in East 2.9 mph 5 mph 37% 0 in 366 W/m2
14:00 93.2 °F 63.1 °F 29.9 in East 4 mph 6 mph 37% 0 in 555 W/m2
14:05 93.7 °F 61.9 °F 29.9 in ENE 4 mph 8 mph 35% 0 in 817 W/m2
14:10 93.4 °F 61.7 °F 29.9 in NNW 0.9 mph 2 mph 35% 0 in 540 W/m2
14:15 93.6 °F 61 °F 29.9 in NW 2.9 mph 8 mph 34% 0 in 359 W/m2
14:20 93.7 °F 61.9 °F 29.9 in ENE 2.9 mph 4 mph 35% 0 in 410 W/m2
14:25 94.1 °F 61.5 °F 29.9 in SW 0.9 mph 5 mph 34% 0 in 315 W/m2
14:30 94.3 °F 61.5 °F 29.9 in ESE 0.9 mph 2 mph 34% 0 in 714 W/m2
14:35 94.8 °F 61.2 °F 29.9 in NE 4 mph 4 mph 33% 0 in 570 W/m2
14:40 95.2 °F 62.4 °F 29.9 in East 2.9 mph 6 mph 34% 0 in 816 W/m2
14:45 95.4 °F 61.7 °F 29.9 in ENE 2.9 mph 5 mph 33% 0 in 777 W/m2
14:50 95.7 °F 62.8 °F 29.9 in ESE 2 mph 4 mph 34% 0 in 780 W/m2
14:55 95.7 °F 62.8 °F 29.9 in East 2 mph 4 mph 34% 0 in 715 W/m2
15:00 95.5 °F 62.8 °F 29.9 in East 2 mph 4 mph 34% 0 in 738 W/m2
15:05 95.5 °F 61.9 °F 29.9 in ENE 2.9 mph 9 mph 33% 0 in 737 W/m2
15:10 95.4 °F 61.7 °F 29.9 in ENE 0.9 mph 8 mph 33% 0 in 738 W/m2
15:15 95.5 °F 61 °F 29.9 in SE 4 mph 4 mph 32% 0 in 737 W/m2
15:20 96.1 °F 61.5 °F 29.9 in ESE 2.9 mph 4 mph 32% 0 in 714 W/m2
15:25 96.1 °F 60.6 °F 29.9 in ESE 2 mph 4 mph 31% 0 in 719 W/m2
15:30 95.7 °F 60.3 °F 29.9 in SE 2 mph 3 mph 31% 0 in 738 W/m2
15:35 95.9 °F 59.5 °F 29.9 in WNW 2 mph 4 mph 30% 0 in 719 W/m2
15:40 95.7 °F 60.3 °F 29.9 in ENE 2.9 mph 3 mph 31% 0 in 696 W/m2
15:45 96.1 °F 60.6 °F 29.9 in ENE 2.9 mph 4 mph 31% 0 in 707 W/m2
15:50 96.3 °F 59.7 °F 29.9 in North 0.9 mph 7 mph 30% 0 in 728 W/m2
15:56 96.1 °F 60.6 °F 29.8 in NE 2 mph 3 mph 31% 0 in 701 W/m2
16:01 96.3 °F 59.7 °F 29.8 in Calm   4 mph 30% 0 in 601 W/m2
16:06 96.1 °F 59.5 °F 29.8 in ESE 2.9 mph 4 mph 30% 0 in 271 W/m2
16:11 95.7 °F 60.3 °F 29.8 in East 2.9 mph 3 mph 31% 0 in 350 W/m2
16:16 95.5 °F 60.1 °F 29.8 in East 2 mph 4 mph 31% 0 in 436 W/m2
16:21 95.4 °F 59.9 °F 29.8 in Calm   3 mph 31% 0 in 281 W/m2
16:26 94.6 °F 61 °F 29.8 in NE 0.9 mph 5 mph 33% 0 in 301 W/m2
16:31 94.5 °F 61 °F 29.8 in ENE 0.9 mph 2 mph 33% 0 in 202 W/m2
16:36 94.3 °F 59.9 °F 29.8 in ENE 2.9 mph 3 mph 32% 0 in 239 W/m2
16:42 94.3 °F 59.9 °F 29.8 in ESE 2 mph 3 mph 32% 0 in 304 W/m2
16:47 94.3 °F 61.5 °F 29.8 in ESE 0.9 mph 2 mph 34% 0 in 246 W/m2
16:52 94.1 °F 59.7 °F 29.8 in NNE 0.9 mph 3 mph 32% 0 in 338 W/m2
16:57 94.1 °F 59.7 °F 29.8 in NE 2.9 mph 4 mph 32% 0 in 257 W/m2
17:02 94.1 °F 59.7 °F 29.8 in ENE 0.9 mph 2 mph 32% 0 in 267 W/m2
17:07 93.9 °F 60.4 °F 29.8 in Calm   2 mph 33% 0 in 304 W/m2
17:12 94.1 °F 60.6 °F 29.8 in NE 0.9 mph 2 mph 33% 0 in 534 W/m2
17:17 94.6 °F 61 °F 29.8 in SE 2.9 mph 4 mph 33% 0 in 510 W/m2
17:22 95.2 °F 60.6 °F 29.8 in WSW 0.9 mph 4 mph 32% 0 in 541 W/m2
17:27 95.7 °F 61.2 °F 29.8 in ESE 0.9 mph 2 mph 32% 0 in 543 W/m2
17:32 96.1 °F 60.6 °F 29.8 in ENE 0.9 mph 3 mph 31% 0 in 413 W/m2
17:37 96.1 °F 61.5 °F 29.8 in SE 2 mph 4 mph 32% 0 in 446 W/m2
17:42 96.1 °F 60.6 °F 29.8 in NNE 2.9 mph 4 mph 31% 0 in 448 W/m2
17:47 96.1 °F 59.5 °F 29.8 in ESE 0.9 mph 2 mph 30% 0 in 394 W/m2
17:52 96.1 °F 59.5 °F 29.8 in ENE 0.9 mph 2 mph 30% 0 in 253 W/m2
17:57 96.3 °F 60.6 °F 29.8 in ESE 0.9 mph 8 mph 31% 0 in 499 W/m2
18:02 96.6 °F 60.1 °F 29.8 in SE 0.9 mph 3 mph 30% 0 in 380 W/m2
18:07 96.8 °F 60.3 °F 29.8 in SE 2.9 mph 4 mph 30% 0 in 251 W/m2
18:12 96.4 °F 59 °F 29.8 in WNW 4 mph 4 mph 29% 0 in 209 W/m2
18:17 95.7 °F 60.3 °F 29.8 in East 0.9 mph 3 mph 31% 0 in 192 W/m2
18:22 95.4 °F 59.9 °F 29.8 in ESE 0.9 mph 2 mph 31% 0 in 192 W/m2
18:27 95.2 °F 58.8 °F 29.8 in Calm   3 mph 30% 0 in 308 W/m2
18:32 95.2 °F 60.6 °F 29.8 in Calm   2 mph 32% 0 in 315 W/m2
18:37 95.4 °F 59.9 °F 29.8 in ESE 0.9 mph 2 mph 31% 0 in 388 W/m2
18:42 95.5 °F 59.2 °F 29.8 in ESE 2 mph 6 mph 30% 0 in 369 W/m2
18:47 95.9 °F 59.5 °F 29.8 in Calm   1 mph 30% 0 in 360 W/m2
18:52 96.1 °F 58.6 °F 29.8 in East 4 mph 4 mph 29% 0 in 348 W/m2
18:57 96.1 °F 58.6 °F 29.8 in NNE 2 mph 3 mph 29% 0 in 332 W/m2
19:02 96.1 °F 59.5 °F 29.8 in Calm   3 mph 30% 0 in 320 W/m2
19:07 96.4 °F 59 °F 29.8 in NE 2 mph 4 mph 29% 0 in 274 W/m2
19:12 96.1 °F 59.5 °F 29.8 in East 0.9 mph 3 mph 30% 0 in 113 W/m2
19:17 95.4 °F 59.9 °F 29.8 in Calm   2 mph 31% 0 in 91 W/m2
19:22 94.8 °F 60.4 °F 29.8 in Calm   1 mph 32% 0 in 118 W/m2
19:27 94.3 °F 61.5 °F 29.8 in Calm   1 mph 34% 0 in 81 W/m2
19:32 93.6 °F 61 °F 29.8 in ENE 0.9 mph 2 mph 34% 0 in 97 W/m2
19:37 92.8 °F 61.2 °F 29.8 in NE 0.9 mph 1 mph 35% 0 in 84 W/m2
19:42 92.3 °F 61.5 °F 29.8 in Calm     36% 0 in 102 W/m2
19:47 91.9 °F 61.9 °F 29.8 in Calm   2 mph 37% 0 in 69 W/m2
19:52 91.2 °F 61.3 °F 29.8 in Calm   1 mph 37% 0 in 62 W/m2
19:57 90.7 °F 61.5 °F 29.8 in Calm   2 mph 38% 0 in 54 W/m2
20:02 90.1 °F 61.9 °F 29.8 in Calm     39% 0 in 49 W/m2
20:08 89.8 °F 61.5 °F 29.8 in NNE 0.9 mph 1 mph 39% 0 in 44 W/m2
20:13 89.2 °F 62.4 °F 29.8 in Calm   1 mph 41% 0 in 33 W/m2
20:18 88.9 °F 62.1 °F 29.8 in Calm   1 mph 41% 0 in 26 W/m2
20:23 88.3 °F 62.4 °F 29.8 in NNE 0.9 mph 1 mph 42% 0 in 19 W/m2
20:28 87.8 °F 61.9 °F 29.8 in Calm     42% 0 in 16 W/m2
20:33 87.3 °F 61.3 °F 29.8 in SW 0.9 mph 3 mph 42% 0 in 14 W/m2
20:38 86.5 °F 61.3 °F 29.8 in SSE 0.9 mph 2 mph 43% 0 in 11 W/m2
20:43 86.2 °F 62.4 °F 29.9 in SSE 0.9 mph 3 mph 45% 0 in 7 W/m2
20:48 85.6 °F 61.2 °F 29.8 in SSE 0.9 mph 1 mph 44% 0 in 5 W/m2
20:53 85.6 °F 61.2 °F 29.8 in WNW 0.9 mph 3 mph 44% 0 in 0 W/m2
20:58 85.6 °F 61.2 °F 29.9 in NE 0.9 mph 3 mph 44% 0 in 0 W/m2
21:03 85.8 °F 62.1 °F 29.9 in Calm   1 mph 45% 0 in 0 W/m2
21:08 85.5 °F 62.2 °F 29.9 in SE 0.9 mph 3 mph 46% 0 in 0 W/m2
21:13 84.9 °F 61.9 °F 29.9 in SSW 0.9 mph 2 mph 46% 0 in 0 W/m2
21:18 84.4 °F 62.6 °F 29.9 in Calm   1 mph 48% 0 in 0 W/m2
21:23 83.8 °F 62.1 °F 29.9 in WSW 2 mph 2 mph 48% 0 in 0 W/m2
21:28 83.5 °F 62.2 °F 29.9 in Calm   3 mph 49% 0 in 0 W/m2
Juneau County Weather
Compliments of Weather Underground - 4 mb